Terminal Aerodrome Forecast
Issued by NWS Sterling, VA

Current Version | Previous Version | Graphics & Text | Print | Product List | Glossary On
Versions: 1 2 3 4 5 6 7 8 9 10 11 12 13 14 15 16 17 18
408
FTUS41 KLWX 291002 AAB
TAFMRB
TAF AMD
KMRB 291002Z 2910/3006 09004KT 3SM -DZ BR OVC006
     FM291700 10005KT 5SM BR OVC015
     FM292100 09006KT P6SM OVC025
     FM300200 VRB03KT P6SM OVC010
     FM300400 VRB03KT 3SM -DZ BR OVC008=

USA.gov is the U.S. government's official web portal to all federal, state and local government web resources and services.